createdAt,value
2022-08-10T00:02:21.503Z,21.38
2022-08-10T00:04:53.874Z,21.38
2022-08-10T00:07:26.471Z,21.38
2022-08-10T00:09:58.928Z,21.27
2022-08-10T00:12:53.343Z,21.15
2022-08-10T00:15:44.054Z,21.12
2022-08-10T00:18:35.249Z,21.21
2022-08-10T00:21:09.631Z,21.20
2022-08-10T00:23:42.071Z,21.14
2022-08-10T00:26:14.636Z,21.11
2022-08-10T00:28:47.383Z,21.01
2022-08-10T00:31:20.460Z,21.10
2022-08-10T00:33:52.868Z,21.08
2022-08-10T00:36:25.281Z,21.00
2022-08-10T00:38:57.750Z,21.04
2022-08-10T00:41:30.336Z,21.09
2022-08-10T00:44:04.330Z,21.05
2022-08-10T00:46:37.344Z,21.14
2022-08-10T00:49:13.636Z,21.06
2022-08-10T00:51:48.543Z,21.04
2022-08-10T00:54:24.853Z,20.90
2022-08-10T00:57:16.515Z,20.80
2022-08-10T00:59:57.813Z,20.80
2022-08-10T01:02:32.887Z,20.71
2022-08-10T01:05:08.425Z,20.77
2022-08-10T01:08:16.366Z,20.78
2022-08-10T01:10:58.864Z,20.82
2022-08-10T01:13:35.912Z,20.82
2022-08-10T01:16:15.361Z,20.75
2022-08-10T01:18:53.162Z,20.59
2022-08-10T01:21:53.957Z,20.65
2022-08-10T01:24:52.210Z,20.71
2022-08-10T01:27:31.322Z,20.72
2022-08-10T01:30:07.463Z,20.74
2022-08-10T01:32:51.241Z,20.79
2022-08-10T01:35:29.819Z,20.62
2022-08-10T01:38:05.941Z,20.47
2022-08-10T01:40:49.783Z,20.44
2022-08-10T01:43:24.945Z,20.41
2022-08-10T01:46:01.086Z,20.43
2022-08-10T01:48:38.162Z,20.33
2022-08-10T01:51:17.321Z,20.39
2022-08-10T01:53:55.689Z,20.44
2022-08-10T01:56:31.927Z,20.39
2022-08-10T01:59:07.764Z,20.49
2022-08-10T02:01:45.128Z,20.55
2022-08-10T02:04:20.570Z,20.58
2022-08-10T02:06:55.531Z,20.63
2022-08-10T02:09:30.436Z,20.68
2022-08-10T02:12:08.526Z,20.77
2022-08-10T02:14:44.770Z,20.78
2022-08-10T02:18:00.022Z,20.81
2022-08-10T02:20:17.061Z,20.83
2022-08-10T02:22:56.260Z,20.86
2022-08-10T02:25:41.476Z,20.89
2022-08-10T02:28:27.247Z,20.90
2022-08-10T02:31:06.843Z,20.95
2022-08-10T02:33:56.319Z,21.00
2022-08-10T02:36:32.826Z,20.97
2022-08-10T02:39:08.078Z,20.99
2022-08-10T02:42:17.891Z,21.01
2022-08-10T02:45:18.527Z,21.02
2022-08-10T02:47:52.327Z,21.02
2022-08-10T02:50:28.564Z,20.95
2022-08-10T02:53:05.824Z,21.00
2022-08-10T02:55:45.914Z,20.90
2022-08-10T02:58:25.954Z,20.76
2022-08-10T03:01:03.568Z,20.77
2022-08-10T03:03:41.963Z,20.61
2022-08-10T03:06:25.199Z,20.51
2022-08-10T03:08:59.471Z,20.40
2022-08-10T03:12:16.779Z,20.46
2022-08-10T03:14:28.932Z,20.40
2022-08-10T03:17:02.650Z,20.26
2022-08-10T03:20:35.313Z,20.19
2022-08-10T03:22:31.952Z,20.07
2022-08-10T03:25:05.655Z,20.01
2022-08-10T03:27:38.870Z,19.98
2022-08-10T03:30:29.827Z,19.98
2022-08-10T03:33:06.308Z,20.00
2022-08-10T03:35:39.212Z,20.01
2022-08-10T03:38:12.331Z,20.02
2022-08-10T03:40:47.732Z,20.09
2022-08-10T03:43:22.328Z,20.09
2022-08-10T03:45:57.743Z,20.15
2022-08-10T03:48:47.004Z,20.18
2022-08-10T03:51:23.104Z,20.23
2022-08-10T03:54:05.889Z,20.23
2022-08-10T03:56:40.193Z,20.28
2022-08-10T03:59:15.161Z,20.30
2022-08-10T04:02:45.179Z,20.32
2022-08-10T04:04:43.119Z,20.33
2022-08-10T04:07:15.821Z,20.34
2022-08-10T04:09:54.903Z,20.32
2022-08-10T04:12:28.234Z,20.34
2022-08-10T04:15:00.583Z,20.35
2022-08-10T04:18:05.115Z,20.33
2022-08-10T04:20:29.953Z,20.35
2022-08-10T04:23:09.199Z,20.35
2022-08-10T04:25:42.439Z,20.37
2022-08-10T04:28:16.094Z,20.37
2022-08-10T04:30:52.009Z,20.41
2022-08-10T04:33:26.726Z,20.42
2022-08-10T04:36:00.249Z,20.41
2022-08-10T04:38:34.826Z,20.42
2022-08-10T04:41:08.600Z,20.45
2022-08-10T04:43:41.042Z,20.42
2022-08-10T04:46:56.102Z,20.39
2022-08-10T04:49:06.474Z,20.48
2022-08-10T04:51:58.866Z,20.44
2022-08-10T04:54:31.308Z,20.42
2022-08-10T04:57:05.468Z,20.41
2022-08-10T04:59:37.888Z,20.42
2022-08-10T05:02:29.470Z,20.49
2022-08-10T05:05:03.384Z,20.42
2022-08-10T05:07:53.653Z,20.38
2022-08-10T05:10:26.814Z,20.44
2022-08-10T05:12:59.864Z,20.42
2022-08-10T05:15:32.291Z,20.53
2022-08-10T05:18:09.836Z,20.56
2022-08-10T05:20:47.352Z,20.58
2022-08-10T05:23:22.447Z,20.67
2022-08-10T05:25:55.236Z,20.74
2022-08-10T05:28:30.800Z,20.82
2022-08-10T05:31:07.595Z,20.86
2022-08-10T05:33:40.106Z,20.84
2022-08-10T05:36:13.640Z,20.94
2022-08-10T05:38:46.915Z,21.02
2022-08-10T05:41:20.025Z,21.13
2022-08-10T05:43:53.606Z,21.15
2022-08-10T05:46:26.178Z,21.25
2022-08-10T05:49:01.038Z,21.31
2022-08-10T05:51:35.327Z,21.36
2022-08-10T05:54:14.266Z,21.39
2022-08-10T05:56:53.435Z,21.61
2022-08-10T06:00:34.143Z,21.71
2022-08-10T06:02:35.029Z,21.73
2022-08-10T06:05:09.692Z,21.89
2022-08-10T06:07:48.725Z,22.00
2022-08-10T06:10:31.330Z,22.15
2022-08-10T06:13:29.915Z,22.20
2022-08-10T06:16:10.048Z,22.20
2022-08-10T06:18:42.782Z,22.29
2022-08-10T06:21:16.426Z,22.41
2022-08-10T06:23:50.003Z,22.59
2022-08-10T06:26:22.449Z,22.77
2022-08-10T06:29:02.787Z,22.83
2022-08-10T06:31:49.037Z,22.93
2022-08-10T06:34:26.974Z,23.12
2022-08-10T06:37:02.208Z,23.16
2022-08-10T06:39:36.386Z,23.44
2022-08-10T06:42:17.611Z,23.66
2022-08-10T06:45:03.188Z,23.65
2022-08-10T06:47:41.548Z,23.71
2022-08-10T06:50:34.484Z,23.79
2022-08-10T06:53:11.590Z,23.77
2022-08-10T06:55:55.186Z,23.83
2022-08-10T06:58:35.231Z,24.14
2022-08-10T07:01:12.461Z,24.08
2022-08-10T07:03:48.663Z,24.19
2022-08-10T07:06:21.867Z,24.25
2022-08-10T07:08:56.359Z,24.24
2022-08-10T07:11:30.149Z,24.20
2022-08-10T07:14:17.237Z,24.54
2022-08-10T07:16:51.029Z,24.66
2022-08-10T07:19:25.263Z,24.70
2022-08-10T07:21:59.188Z,24.91
2022-08-10T07:24:34.226Z,24.92
2022-08-10T07:27:08.115Z,25.05
2022-08-10T07:29:53.942Z,25.13
2022-08-10T07:32:29.060Z,25.40
2022-08-10T07:35:03.660Z,25.58
2022-08-10T07:37:36.860Z,25.44
2022-08-10T07:40:10.660Z,25.42
2022-08-10T07:42:46.234Z,25.64
2022-08-10T07:45:19.467Z,25.75
2022-08-10T07:48:02.475Z,25.91
2022-08-10T07:50:40.788Z,25.94
2022-08-10T07:53:18.968Z,26.32
2022-08-10T07:56:05.147Z,26.66
2022-08-10T07:58:51.906Z,27.05
2022-08-10T08:01:31.509Z,27.23
2022-08-10T08:04:11.814Z,26.99
2022-08-10T08:06:46.686Z,26.71
2022-08-10T08:09:20.356Z,26.85
2022-08-10T08:11:55.887Z,27.06
2022-08-10T08:14:29.575Z,27.07
2022-08-10T08:17:02.183Z,27.15
2022-08-10T08:19:37.795Z,27.28
2022-08-10T08:24:06.976Z,27.44
2022-08-10T08:25:12.929Z,27.40
2022-08-10T08:27:52.335Z,27.37
2022-08-10T08:30:26.660Z,27.23
2022-08-10T08:33:01.340Z,27.50
2022-08-10T08:35:34.170Z,27.41
2022-08-10T08:38:30.241Z,27.48
2022-08-10T08:41:08.423Z,27.78
2022-08-10T08:43:53.744Z,27.97
2022-08-10T08:46:57.142Z,28.14
2022-08-10T08:50:08.781Z,27.99
2022-08-10T08:52:49.854Z,28.39
2022-08-10T08:56:01.403Z,28.45
2022-08-10T08:58:58.935Z,28.51
2022-08-10T09:01:49.275Z,28.56
2022-08-10T09:04:42.484Z,28.85
2022-08-10T09:07:59.628Z,28.87
2022-08-10T09:10:45.195Z,28.87
2022-08-10T09:13:26.410Z,28.71
2022-08-10T09:16:13.632Z,28.46
2022-08-10T09:18:52.142Z,28.60
2022-08-10T09:21:33.194Z,28.81
2022-08-10T09:24:20.212Z,29.11
2022-08-10T09:26:56.421Z,29.05
2022-08-10T09:29:32.967Z,28.79
2022-08-10T09:36:13.788Z,29.07
2022-08-10T09:36:24.061Z,29.00
2022-08-10T09:38:18.399Z,29.01
2022-08-10T09:41:03.953Z,29.09
2022-08-10T09:43:51.878Z,28.76
2022-08-10T09:46:41.771Z,28.99
2022-08-10T09:49:25.030Z,29.36
2022-08-10T09:52:08.977Z,29.54
2022-08-10T09:54:51.808Z,29.52
2022-08-10T09:57:41.329Z,29.87
2022-08-10T10:00:20.963Z,29.93
2022-08-10T10:03:08.123Z,29.83
2022-08-10T10:05:50.410Z,29.63
2022-08-10T10:08:30.883Z,29.73
2022-08-10T10:11:09.587Z,29.80
2022-08-10T10:14:02.811Z,29.94
2022-08-10T10:16:52.275Z,29.88
2022-08-10T10:19:37.269Z,29.93
2022-08-10T10:22:25.574Z,30.11
2022-08-10T10:25:19.727Z,29.80
2022-08-10T10:28:05.396Z,30.01
2022-08-10T10:30:52.739Z,30.45
2022-08-10T10:33:44.000Z,30.43
2022-08-10T10:36:18.440Z,30.67
2022-08-10T10:38:53.792Z,30.61
2022-08-10T10:42:03.858Z,31.06
2022-08-10T10:44:41.944Z,30.80
2022-08-10T10:47:36.780Z,30.84
2022-08-10T10:50:13.235Z,30.80
2022-08-10T10:52:55.636Z,30.49
2022-08-10T10:56:13.178Z,30.72
2022-08-10T10:58:37.527Z,30.71
2022-08-10T11:01:18.002Z,30.90
2022-08-10T11:04:08.122Z,30.99
2022-08-10T11:06:52.566Z,30.95
2022-08-10T11:10:05.378Z,30.57
2022-08-10T11:12:33.832Z,30.86
2022-08-10T11:15:09.886Z,30.61
2022-08-10T11:17:58.128Z,30.35
2022-08-10T11:20:38.382Z,30.45
2022-08-10T11:23:20.002Z,29.91
2022-08-10T11:25:59.757Z,30.01
2022-08-10T11:28:38.616Z,30.12
2022-08-10T11:31:19.270Z,30.53
2022-08-10T11:34:46.531Z,30.81
2022-08-10T11:36:58.388Z,30.50
2022-08-10T11:39:48.470Z,30.71
2022-08-10T11:42:35.890Z,30.90
2022-08-10T11:45:12.197Z,30.89
2022-08-10T11:47:50.328Z,30.78
2022-08-10T11:50:25.613Z,30.73
2022-08-10T11:53:09.760Z,30.57
2022-08-10T11:55:48.611Z,30.42
2022-08-10T11:58:42.904Z,30.58
2022-08-10T12:01:24.483Z,30.45
2022-08-10T12:03:59.435Z,30.44
2022-08-10T12:06:54.101Z,30.16
2022-08-10T12:10:11.244Z,30.10
2022-08-10T12:12:20.775Z,29.97
2022-08-10T12:14:59.724Z,29.39
2022-08-10T12:17:37.292Z,29.24
2022-08-10T12:20:15.512Z,29.12
2022-08-10T12:22:54.839Z,28.89
2022-08-10T12:25:57.645Z,28.64
2022-08-10T12:28:50.615Z,28.63
2022-08-10T12:31:29.507Z,28.35
2022-08-10T12:34:14.902Z,27.89
2022-08-10T12:36:54.544Z,27.58
2022-08-10T12:39:29.745Z,27.16
2022-08-10T12:42:06.370Z,26.95
2022-08-10T12:44:47.467Z,26.91
2022-08-10T12:47:31.759Z,26.80
2022-08-10T12:50:29.301Z,27.06
2022-08-10T12:53:11.302Z,26.85
2022-08-10T12:55:45.350Z,26.75
2022-08-10T12:58:58.310Z,26.87
2022-08-10T13:01:16.533Z,26.77
2022-08-10T13:04:22.461Z,26.75
2022-08-10T13:06:49.047Z,26.56
2022-08-10T13:09:22.704Z,26.33
2022-08-10T13:12:39.478Z,26.18
2022-08-10T13:14:57.831Z,26.09
2022-08-10T13:17:39.431Z,25.82
2022-08-10T13:20:17.790Z,25.72
2022-08-10T13:22:54.481Z,25.48
2022-08-10T13:25:31.631Z,25.27
2022-08-10T13:28:35.693Z,25.20
2022-08-10T13:31:03.366Z,24.99
2022-08-10T13:34:39.632Z,24.80
2022-08-10T13:36:38.236Z,24.54
2022-08-10T13:39:12.007Z,24.51
2022-08-10T13:41:45.816Z,24.42
2022-08-10T13:44:29.676Z,24.34
2022-08-10T13:52:25.086Z,23.78
2022-08-10T13:54:59.714Z,23.72
2022-08-10T13:57:36.150Z,23.39
2022-08-10T14:00:37.464Z,23.45
2022-08-10T14:03:12.371Z,23.47
2022-08-10T14:05:50.612Z,23.46
2022-08-10T14:08:26.355Z,23.52
2022-08-10T14:11:11.050Z,23.62
2022-08-10T14:13:51.220Z,23.72
2022-08-10T14:16:25.019Z,23.74
2022-08-10T14:19:01.179Z,23.67
2022-08-10T14:21:38.755Z,23.73
2022-08-10T14:24:21.910Z,23.66
2022-08-10T14:27:02.199Z,23.67
2022-08-10T14:29:42.288Z,23.70
2022-08-10T14:32:18.466Z,23.73
2022-08-10T14:36:16.822Z,23.71
2022-08-10T14:37:50.286Z,23.73
2022-08-10T14:40:28.098Z,23.70
2022-08-10T14:43:04.171Z,23.77
2022-08-10T14:45:39.340Z,23.74
2022-08-10T14:48:15.645Z,23.70
2022-08-10T14:50:55.543Z,23.60
2022-08-10T14:53:31.411Z,23.62
2022-08-10T14:56:10.670Z,23.59
2022-08-10T14:59:06.262Z,23.64
2022-08-10T15:02:38.307Z,23.66
2022-08-10T15:04:37.473Z,23.44
2022-08-10T15:07:12.810Z,23.38
2022-08-10T15:09:59.553Z,23.29
2022-08-10T15:12:38.458Z,23.28
2022-08-10T15:15:16.258Z,23.32
2022-08-10T15:17:52.934Z,23.22
2022-08-10T15:20:29.271Z,23.16
2022-08-10T15:23:07.479Z,23.05
2022-08-10T15:25:57.943Z,22.97
2022-08-10T15:29:22.004Z,22.83
2022-08-10T15:31:30.385Z,22.85
2022-08-10T15:34:22.902Z,22.79
2022-08-10T15:37:40.088Z,22.70
2022-08-10T15:40:23.874Z,22.61
2022-08-10T15:43:05.784Z,22.35
2022-08-10T15:46:03.652Z,22.29
2022-08-10T15:48:43.803Z,22.19
2022-08-10T15:51:33.848Z,22.20
2022-08-10T15:54:33.351Z,22.04
2022-08-10T15:57:09.689Z,21.84
2022-08-10T15:59:47.429Z,21.72
2022-08-10T16:02:25.067Z,21.62
2022-08-10T16:05:04.546Z,21.63
2022-08-10T16:07:45.576Z,21.67
2022-08-10T16:10:28.109Z,21.42
2022-08-10T16:14:00.276Z,21.50
2022-08-10T16:16:01.191Z,21.55
2022-08-10T16:18:37.669Z,21.53
2022-08-10T16:21:15.479Z,21.53
2022-08-10T16:24:02.125Z,21.56
2022-08-10T16:26:53.431Z,21.55
2022-08-10T16:29:27.026Z,21.48
2022-08-10T16:32:03.549Z,21.45
2022-08-10T16:34:38.944Z,21.45
2022-08-10T16:37:13.249Z,21.39
2022-08-10T16:39:57.686Z,21.35
2022-08-10T16:42:35.427Z,21.32
2022-08-10T16:45:11.391Z,21.32
2022-08-10T16:47:46.842Z,21.32
2022-08-10T16:50:26.535Z,21.36
2022-08-10T16:53:01.447Z,21.34
2022-08-10T16:55:48.139Z,21.38
2022-08-10T16:58:26.462Z,21.29
2022-08-10T17:01:01.781Z,21.19
2022-08-10T17:04:07.835Z,21.02
2022-08-10T17:06:36.291Z,20.99
2022-08-10T17:09:15.995Z,21.05
2022-08-10T17:11:50.596Z,21.10
2022-08-10T17:14:24.798Z,20.98
2022-08-10T17:17:01.932Z,21.00
2022-08-10T17:19:37.270Z,21.04
2022-08-10T17:22:14.743Z,20.96
2022-08-10T17:24:52.705Z,20.91
2022-08-10T17:28:05.032Z,20.81
2022-08-10T17:30:33.806Z,20.91
2022-08-10T17:33:10.690Z,20.97
2022-08-10T17:35:48.263Z,20.82
2022-08-10T17:38:23.383Z,20.77
2022-08-10T17:41:03.441Z,20.70
2022-08-10T17:43:57.768Z,20.62
2022-08-10T17:46:33.107Z,20.66
2022-08-10T17:49:07.895Z,20.65
2022-08-10T17:51:42.008Z,20.65
2022-08-10T17:54:26.489Z,20.62
2022-08-10T17:57:01.536Z,20.61
2022-08-10T17:59:35.987Z,20.61
2022-08-10T18:02:11.089Z,20.62
2022-08-10T18:04:48.442Z,20.55
2022-08-10T18:07:27.840Z,20.53
2022-08-10T18:10:01.850Z,20.50
2022-08-10T18:12:42.416Z,20.44
2022-08-10T18:15:18.745Z,20.36
2022-08-10T18:17:58.369Z,20.34
2022-08-10T18:20:36.547Z,20.29
2022-08-10T18:23:09.880Z,20.26
2022-08-10T18:25:45.519Z,20.20
2022-08-10T18:28:19.783Z,20.12
2022-08-10T18:30:54.434Z,19.89
2022-08-10T18:33:30.818Z,19.87
2022-08-10T18:36:06.584Z,19.80
2022-08-10T18:38:44.027Z,19.71
2022-08-10T18:41:21.468Z,19.66
2022-08-10T18:44:07.023Z,19.62
2022-08-10T18:46:48.134Z,19.53
2022-08-10T18:49:29.650Z,19.40
2022-08-10T18:52:05.599Z,19.43
2022-08-10T18:54:45.312Z,19.48
2022-08-10T18:57:31.947Z,19.52
2022-08-10T19:00:09.320Z,19.51
2022-08-10T19:03:09.611Z,19.53
2022-08-10T19:05:58.863Z,19.47
2022-08-10T19:09:08.550Z,19.24
2022-08-10T19:12:30.070Z,19.25
2022-08-10T19:15:14.335Z,19.21
2022-08-10T19:18:06.805Z,19.20
2022-08-10T19:20:48.182Z,19.09
2022-08-10T19:23:41.069Z,18.98
2022-08-10T19:26:43.926Z,18.95
2022-08-10T19:30:09.374Z,18.90
2022-08-10T19:32:31.747Z,18.83
2022-08-10T19:35:10.659Z,18.81
2022-08-10T19:38:00.779Z,18.74
2022-08-10T19:40:44.749Z,18.73
2022-08-10T19:43:37.286Z,18.62
2022-08-10T19:46:28.453Z,18.51
2022-08-10T19:49:09.412Z,18.47
2022-08-10T19:51:51.319Z,18.47
2022-08-10T19:54:33.315Z,18.43
2022-08-10T19:57:13.189Z,18.38
2022-08-10T20:00:16.853Z,18.33
2022-08-10T20:02:59.309Z,18.33
2022-08-10T20:05:35.366Z,18.27
2022-08-10T20:08:11.221Z,18.22
2022-08-10T20:10:49.525Z,18.13
2022-08-10T20:13:27.158Z,18.04
2022-08-10T20:16:06.380Z,18.01
2022-08-10T20:18:43.133Z,18.00
2022-08-10T20:21:22.434Z,18.06
2022-08-10T20:24:02.866Z,18.01
2022-08-10T20:26:48.812Z,18.02
2022-08-10T20:29:58.698Z,17.98
2022-08-10T20:32:24.743Z,18.01
2022-08-10T20:35:05.956Z,17.92
2022-08-10T20:38:03.843Z,17.81
2022-08-10T20:40:45.055Z,17.80
2022-08-10T20:43:25.883Z,17.86
2022-08-10T20:46:08.950Z,17.82
2022-08-10T20:48:48.625Z,17.89
2022-08-10T20:51:24.386Z,17.95
2022-08-10T20:54:18.531Z,17.94
2022-08-10T20:58:03.878Z,17.98
2022-08-10T21:00:07.174Z,18.04
2022-08-10T21:02:56.429Z,17.95
2022-08-10T21:05:34.599Z,17.95
2022-08-10T21:08:19.316Z,17.88
2022-08-10T21:11:07.999Z,17.84
2022-08-10T21:13:57.356Z,17.80
2022-08-10T21:16:49.363Z,17.67
2022-08-10T21:19:52.347Z,17.64
2022-08-10T21:22:32.426Z,17.73
2022-08-10T21:25:15.301Z,17.80
2022-08-10T21:28:13.487Z,17.86
2022-08-10T21:30:58.106Z,17.87
2022-08-10T21:33:39.902Z,17.80
2022-08-10T21:36:21.969Z,17.81
2022-08-10T21:39:09.883Z,17.88
2022-08-10T21:42:31.500Z,17.95
2022-08-10T21:45:59.718Z,17.89
2022-08-10T21:48:57.757Z,17.87
2022-08-10T21:52:01.757Z,17.88
2022-08-10T21:55:02.487Z,17.91
2022-08-10T21:58:04.659Z,17.93
2022-08-10T22:01:02.755Z,17.91
2022-08-10T22:03:56.612Z,17.93
2022-08-10T22:06:52.574Z,17.94
2022-08-10T22:09:48.220Z,17.89
2022-08-10T22:12:47.847Z,18.03
2022-08-10T22:16:09.742Z,18.08
2022-08-10T22:19:02.953Z,18.08
2022-08-10T22:22:01.937Z,18.12
2022-08-10T22:25:18.316Z,18.15
2022-08-10T22:28:17.785Z,18.21
2022-08-10T22:31:31.823Z,18.20
2022-08-10T22:34:42.379Z,18.18
2022-08-10T22:37:44.438Z,18.15
2022-08-10T22:40:39.069Z,18.06
2022-08-10T22:43:37.400Z,18.06
2022-08-10T22:46:35.836Z,18.05
2022-08-10T22:49:08.860Z,18.05
2022-08-10T22:51:52.491Z,18.09
2022-08-10T22:54:50.431Z,18.01
2022-08-10T22:57:41.539Z,18.04
2022-08-10T23:00:16.099Z,18.02
2022-08-10T23:02:52.920Z,17.91
2022-08-10T23:05:31.954Z,17.89
2022-08-10T23:08:19.604Z,17.81
2022-08-10T23:11:06.222Z,17.87
2022-08-10T23:13:43.054Z,17.90
2022-08-10T23:16:36.447Z,17.82
2022-08-10T23:19:16.425Z,17.89
2022-08-10T23:22:04.171Z,17.86
2022-08-10T23:24:42.892Z,17.94
2022-08-10T23:27:37.952Z,17.91
2022-08-10T23:30:17.538Z,17.84
2022-08-10T23:32:58.374Z,17.83
2022-08-10T23:36:31.734Z,17.87
2022-08-10T23:38:40.728Z,17.88
2022-08-10T23:41:13.294Z,17.85
2022-08-10T23:44:03.416Z,17.89
2022-08-10T23:46:39.782Z,17.82
2022-08-10T23:49:12.727Z,17.76
2022-08-10T23:51:55.300Z,17.76
2022-08-10T23:54:30.087Z,17.71
2022-08-10T23:57:02.892Z,17.69
2022-08-10T23:59:37.284Z,17.63
